Pagina principale
METAR-TAF:

METAR-TAF

Aeroporti :

Aeroporto di Lugano-Agno

Lugano, Svizzera

latitudine: 46-00N, longitudine: 008-58E, altezza: 273 m

Osservazione

Il bollettino è stato emesso 17 minuti fa, alle 03:50 UTC
Vento 2 kt da direzioni variabili
Temperature 11°C
Umidità 76%
Pressione 1023 hPa
Visibilità 10 km o più
Nuvoloso ad un'altezza di 5000 ft

METAR: LSZA 220350Z AUTO VRB02KT 9999 BKN050 11/07 Q1023

Ora: 06:07 (04:07 UTC)

Previsione

Il bollettino è stato emesso 1 ora e 42 minuti fa, alle 02:25 UTC
Previsione valida dal 22 alle 03 UTC al 22 alle 12 UTC
Vento 3 kt da direzioni variabili
Visibilità 10 km o più
Nuvoloso ad un'altezza di 5000 ft
Evoluzione graduale
dal 22 alle 04 UTC al 22 alle 07 UTC
Nubi sparse ad un'altezza di 5000 ft
Temporaneamente
dal 22 alle 08 UTC al 22 alle 12 UTC
Visibilità 10 km o più
nessuna nube inferiore a 1500 m e nessun cumulonembo

TAF: LSZA 220225Z 2203/2212 VRB03KT 9999 BKN050 BECMG 2204/2207 SCT050 TEMPO 2208/2212 CAVOK

Osservazioni e previsioni meteorologiche di più di 4000 aeroporti (messaggi METAR e TAF).

Le stazioni disponibili sono rappresentate dai dischi gialli e rossi sulla carta.

Puntare il mouse per vedere il nome della stazione.

Clicca sopra per visualizzare le osservazioni e previsioni meteorologiche.

Per cambiare la mappa : fare clic sui pulsanti verdi con una croce nera per ingrandire, il pulsante verde con un trattino per diminuire, o sulla freccia verde per le mappe adiacenti.


METAR-TAF: